sensor_id;sensor_type;location;lat;lon;timestamp;pressure;altitude;pressure_sealevel;temperature;humidity
70468;BME280;57934;51.532;7.684;2023-02-13T00:02:09;102511.16;;;7.20;nan
70468;BME280;57934;51.532;7.684;2023-02-13T00:04:36;102503.59;;;7.15;nan
70468;BME280;57934;51.532;7.684;2023-02-13T00:07:03;102510.56;;;7.16;nan
70468;BME280;57934;51.532;7.684;2023-02-13T00:09:30;102516.13;;;7.11;nan
70468;BME280;57934;51.532;7.684;2023-02-13T00:11:56;102513.63;;;7.10;nan
70468;BME280;57934;51.532;7.684;2023-02-13T00:14:23;102511.00;;;7.10;nan
70468;BME280;57934;51.532;7.684;2023-02-13T00:16:52;102511.47;;;7.15;nan
70468;BME280;57934;51.532;7.684;2023-02-13T00:19:18;102502.91;;;7.13;nan
70468;BME280;57934;51.532;7.684;2023-02-13T00:21:48;102497.66;;;7.13;nan
70468;BME280;57934;51.532;7.684;2023-02-13T00:24:16;102498.72;;;7.10;nan
70468;BME280;57934;51.532;7.684;2023-02-13T00:26:45;102497.88;;;7.10;nan
70468;BME280;57934;51.532;7.684;2023-02-13T00:29:19;102491.69;;;7.11;nan
70468;BME280;57934;51.532;7.684;2023-02-13T00:31:46;102495.75;;;7.15;nan
70468;BME280;57934;51.532;7.684;2023-02-13T00:34:13;102493.25;;;7.13;nan
70468;BME280;57934;51.532;7.684;2023-02-13T00:36:44;102492.75;;;7.08;nan
70468;BME280;57934;51.532;7.684;2023-02-13T00:39:15;102495.97;;;7.12;nan
70468;BME280;57934;51.532;7.684;2023-02-13T00:41:41;102501.59;;;7.18;nan
70468;BME280;57934;51.532;7.684;2023-02-13T00:44:08;102499.31;;;7.14;nan
70468;BME280;57934;51.532;7.684;2023-02-13T00:46:35;102497.75;;;7.11;nan
70468;BME280;57934;51.532;7.684;2023-02-13T00:49:02;102498.38;;;7.15;nan
70468;BME280;57934;51.532;7.684;2023-02-13T00:51:28;102501.00;;;7.15;nan
70468;BME280;57934;51.532;7.684;2023-02-13T00:53:54;102499.09;;;7.17;nan
70468;BME280;57934;51.532;7.684;2023-02-13T00:56:20;102497.44;;;7.16;nan
70468;BME280;57934;51.532;7.684;2023-02-13T00:58:46;102500.06;;;7.16;nan
70468;BME280;57934;51.532;7.684;2023-02-13T01:01:12;102495.75;;;7.15;nan
70468;BME280;57934;51.532;7.684;2023-02-13T01:03:39;102493.50;;;7.22;nan
70468;BME280;57934;51.532;7.684;2023-02-13T01:06:05;102491.00;;;7.20;nan
70468;BME280;57934;51.532;7.684;2023-02-13T01:08:32;102496.34;;;7.18;nan
70468;BME280;57934;51.532;7.684;2023-02-13T01:10:58;102498.13;;;7.18;nan
70468;BME280;57934;51.532;7.684;2023-02-13T01:13:25;102486.06;;;7.15;nan
70468;BME280;57934;51.532;7.684;2023-02-13T01:15:53;102493.94;;;7.15;nan
70468;BME280;57934;51.532;7.684;2023-02-13T01:18:19;102496.81;;;7.12;nan
70468;BME280;57934;51.532;7.684;2023-02-13T01:21:02;102500.06;;;7.16;nan
70468;BME280;57934;51.532;7.684;2023-02-13T01:23:33;102496.81;;;7.12;nan
70468;BME280;57934;51.532;7.684;2023-02-13T01:25:59;102493.13;;;7.15;nan
70468;BME280;57934;51.532;7.684;2023-02-13T01:28:25;102494.81;;;7.16;nan
70468;BME280;57934;51.532;7.684;2023-02-13T01:30:56;102499.94;;;7.17;nan
70468;BME280;57934;51.532;7.684;2023-02-13T01:33:24;102503.59;;;7.15;nan
70468;BME280;57934;51.532;7.684;2023-02-13T01:35:51;102493.03;;;7.16;nan
70468;BME280;57934;51.532;7.684;2023-02-13T01:38:17;102492.88;;;7.18;nan
70468;BME280;57934;51.532;7.684;2023-02-13T01:40:47;102493.84;;;7.17;nan
70468;BME280;57934;51.532;7.684;2023-02-13T01:43:14;102488.84;;;7.14;nan
70468;BME280;57934;51.532;7.684;2023-02-13T01:45:41;102487.88;;;7.15;nan
70468;BME280;57934;51.532;7.684;2023-02-13T01:48:16;102491.44;;;7.14;nan
70468;BME280;57934;51.532;7.684;2023-02-13T01:50:49;102489.66;;;7.14;nan
70468;BME280;57934;51.532;7.684;2023-02-13T01:53:29;102485.84;;;7.18;nan
70468;BME280;57934;51.532;7.684;2023-02-13T01:56:08;102487.78;;;7.16;nan
70468;BME280;57934;51.532;7.684;2023-02-13T01:58:38;102483.22;;;7.18;nan
70468;BME280;57934;51.532;7.684;2023-02-13T02:01:07;102479.53;;;7.21;nan
70468;BME280;57934;51.532;7.684;2023-02-13T02:03:40;102478.94;;;7.17;nan
70468;BME280;57934;51.532;7.684;2023-02-13T02:06:15;102478.34;;;7.14;nan
70468;BME280;57934;51.532;7.684;2023-02-13T02:08:43;102476.31;;;7.17;nan
70468;BME280;57934;51.532;7.684;2023-02-13T02:11:24;102475.59;;;7.15;nan
70468;BME280;57934;51.532;7.684;2023-02-13T02:13:53;102476.44;;;7.16;nan
70468;BME280;57934;51.532;7.684;2023-02-13T02:16:30;102472.97;;;7.15;nan
70468;BME280;57934;51.532;7.684;2023-02-13T02:18:57;102473.09;;;7.14;nan
70468;BME280;57934;51.532;7.684;2023-02-13T02:21:40;102469.41;;;7.16;nan
70468;BME280;57934;51.532;7.684;2023-02-13T02:27:19;102467.84;;;7.14;nan
70468;BME280;57934;51.532;7.684;2023-02-13T02:36:14;102470.44;;;7.03;nan
70468;BME280;57934;51.532;7.684;2023-02-13T02:39:03;102468.75;;;7.02;nan
70468;BME280;57934;51.532;7.684;2023-02-13T02:41:41;102466.63;;;7.07;nan
70468;BME280;57934;51.532;7.684;2023-02-13T02:50:48;102461.63;;;7.04;nan
70468;BME280;57934;51.532;7.684;2023-02-13T02:52:56;102464.47;;;7.01;nan
70468;BME280;57934;51.532;7.684;2023-02-13T02:58:11;102460.53;;;6.95;nan
70468;BME280;57934;51.532;7.684;2023-02-13T03:00:59;102454.94;;;7.00;nan
70468;BME280;57934;51.532;7.684;2023-02-13T03:03:46;102459.44;;;6.98;nan
70468;BME280;57934;51.532;7.684;2023-02-13T03:06:36;102449.31;;;6.93;nan
70468;BME280;57934;51.532;7.684;2023-02-13T03:09:09;102448.59;;;6.91;nan
70468;BME280;57934;51.532;7.684;2023-02-13T03:11:56;102452.28;;;6.88;nan
70468;BME280;57934;51.532;7.684;2023-02-13T03:14:42;102456.06;;;6.84;nan
70468;BME280;57934;51.532;7.684;2023-02-13T03:17:11;102452.75;;;6.82;nan
70468;BME280;57934;51.532;7.684;2023-02-13T03:22:48;102457.03;;;6.83;nan
70468;BME280;57934;51.532;7.684;2023-02-13T03:36:48;102465.25;;;6.79;nan
70468;BME280;57934;51.532;7.684;2023-02-13T03:39:51;102458.66;;;6.73;nan
70468;BME280;57934;51.532;7.684;2023-02-13T03:42:38;102466.31;;;6.76;nan
70468;BME280;57934;51.532;7.684;2023-02-13T03:45:28;102468.31;;;6.73;nan
70468;BME280;57934;51.532;7.684;2023-02-13T03:48:17;102472.50;;;6.75;nan
70468;BME280;57934;51.532;7.684;2023-02-13T03:51:05;102476.19;;;6.73;nan
70468;BME280;57934;51.532;7.684;2023-02-13T03:53:34;102477.97;;;6.72;nan
70468;BME280;57934;51.532;7.684;2023-02-13T03:56:03;102476.75;;;6.65;nan
70468;BME280;57934;51.532;7.684;2023-02-13T03:58:51;102469.72;;;6.65;nan
70468;BME280;57934;51.532;7.684;2023-02-13T04:01:38;102475.09;;;6.64;nan
70468;BME280;57934;51.532;7.684;2023-02-13T04:04:20;102473.41;;;6.63;nan
70468;BME280;57934;51.532;7.684;2023-02-13T04:07:02;102476.75;;;6.65;nan
70468;BME280;57934;51.532;7.684;2023-02-13T04:09:30;102474.25;;;6.63;nan
70468;BME280;57934;51.532;7.684;2023-02-13T04:12:11;102473.25;;;6.53;nan
70468;BME280;57934;51.532;7.684;2023-02-13T04:17:26;102472.53;;;6.51;nan
70468;BME280;57934;51.532;7.684;2023-02-13T04:19:55;102476.25;;;6.60;nan
70468;BME280;57934;51.532;7.684;2023-02-13T04:22:21;102471.25;;;6.57;nan
70468;BME280;57934;51.532;7.684;2023-02-13T04:24:47;102467.28;;;6.51;nan
70468;BME280;57934;51.532;7.684;2023-02-13T04:27:15;102477.56;;;6.54;nan
70468;BME280;57934;51.532;7.684;2023-02-13T04:29:42;102471.25;;;6.57;nan
70468;BME280;57934;51.532;7.684;2023-02-13T04:32:11;102471.34;;;6.55;nan
70468;BME280;57934;51.532;7.684;2023-02-13T04:34:38;102473.13;;;6.55;nan
70468;BME280;57934;51.532;7.684;2023-02-13T04:37:04;102475.53;;;6.58;nan
70468;BME280;57934;51.532;7.684;2023-02-13T04:39:31;102477.41;;;6.56;nan
70468;BME280;57934;51.532;7.684;2023-02-13T04:41:57;102475.53;;;6.58;nan
70468;BME280;57934;51.532;7.684;2023-02-13T04:44:23;102476.25;;;6.60;nan
70468;BME280;57934;51.532;7.684;2023-02-13T04:46:49;102478.16;;;6.58;nan
70468;BME280;57934;51.532;7.684;2023-02-13T04:49:15;102473.63;;;6.60;nan
70468;BME280;57934;51.532;7.684;2023-02-13T04:51:41;102469.25;;;6.60;nan
70468;BME280;57934;51.532;7.684;2023-02-13T04:54:07;102470.91;;;6.61;nan
70468;BME280;57934;51.532;7.684;2023-02-13T04:56:33;102471.00;;;6.60;nan
70468;BME280;57934;51.532;7.684;2023-02-13T04:58:59;102467.78;;;6.56;nan
70468;BME280;57934;51.532;7.684;2023-02-13T05:01:25;102462.91;;;6.63;nan
70468;BME280;57934;51.532;7.684;2023-02-13T05:03:51;102456.13;;;6.60;nan
70468;BME280;57934;51.532;7.684;2023-02-13T05:06:17;102456.34;;;6.57;nan
70468;BME280;57934;51.532;7.684;2023-02-13T05:08:43;102458.16;;;6.57;nan
70468;BME280;57934;51.532;7.684;2023-02-13T05:11:09;102458.25;;;6.55;nan
70468;BME280;57934;51.532;7.684;2023-02-13T05:13:35;102466.09;;;6.55;nan
70468;BME280;57934;51.532;7.684;2023-02-13T05:16:01;102456.97;;;6.61;nan
70468;BME280;57934;51.532;7.684;2023-02-13T05:18:26;102466.72;;;6.59;nan
70468;BME280;57934;51.532;7.684;2023-02-13T05:20:52;102458.41;;;6.65;nan
70468;BME280;57934;51.532;7.684;2023-02-13T05:23:37;102459.47;;;6.62;nan
70468;BME280;57934;51.532;7.684;2023-02-13T05:26:03;102463.13;;;6.60;nan
70468;BME280;57934;51.532;7.684;2023-02-13T05:28:29;102451.59;;;6.62;nan
70468;BME280;57934;51.532;7.684;2023-02-13T05:31:14;102461.25;;;6.62;nan
70468;BME280;57934;51.532;7.684;2023-02-13T05:33:39;102453.59;;;6.59;nan
70468;BME280;57934;51.532;7.684;2023-02-13T05:36:06;102457.81;;;6.61;nan
70468;BME280;57934;51.532;7.684;2023-02-13T05:38:32;102458.41;;;6.65;nan
70468;BME280;57934;51.532;7.684;2023-02-13T05:40:59;102462.00;;;6.64;nan
70468;BME280;57934;51.532;7.684;2023-02-13T05:43:26;102457.56;;;6.64;nan
70468;BME280;57934;51.532;7.684;2023-02-13T05:46:06;102454.13;;;6.64;nan
70468;BME280;57934;51.532;7.684;2023-02-13T05:48:32;102454.97;;;6.64;nan
70468;BME280;57934;51.532;7.684;2023-02-13T05:50:59;102459.38;;;6.64;nan
70468;BME280;57934;51.532;7.684;2023-02-13T05:53:25;102450.91;;;6.60;nan
70468;BME280;57934;51.532;7.684;2023-02-13T05:55:51;102461.25;;;6.62;nan
70468;BME280;57934;51.532;7.684;2023-02-13T05:58:19;102456.00;;;6.62;nan
70468;BME280;57934;51.532;7.684;2023-02-13T06:00:46;102448.38;;;6.59;nan
70468;BME280;57934;51.532;7.684;2023-02-13T06:03:13;102453.84;;;6.56;nan
70468;BME280;57934;51.532;7.684;2023-02-13T06:05:39;102451.44;;;6.53;nan
70468;BME280;57934;51.532;7.684;2023-02-13T06:08:05;102454.41;;;6.48;nan
70468;BME280;57934;51.532;7.684;2023-02-13T06:10:31;102453.56;;;6.48;nan
70468;BME280;57934;51.532;7.684;2023-02-13T06:12:57;102457.97;;;6.47;nan
70468;BME280;57934;51.532;7.684;2023-02-13T06:15:23;102456.19;;;6.48;nan
70468;BME280;57934;51.532;7.684;2023-02-13T06:17:49;102460.47;;;6.49;nan
70468;BME280;57934;51.532;7.684;2023-02-13T06:20:15;102461.66;;;6.44;nan
70468;BME280;57934;51.532;7.684;2023-02-13T06:22:42;102467.63;;;6.47;nan
70468;BME280;57934;51.532;7.684;2023-02-13T06:25:08;102465.94;;;6.45;nan
70468;BME280;57934;51.532;7.684;2023-02-13T06:27:34;102458.31;;;6.42;nan
70468;BME280;57934;51.532;7.684;2023-02-13T06:30:00;102462.09;;;6.38;nan
70468;BME280;57934;51.532;7.684;2023-02-13T06:32:26;102463.88;;;6.38;nan
70468;BME280;57934;51.532;7.684;2023-02-13T06:34:52;102462.97;;;6.39;nan
70468;BME280;57934;51.532;7.684;2023-02-13T06:37:18;102459.72;;;6.35;nan
70468;BME280;57934;51.532;7.684;2023-02-13T06:39:44;102460.88;;;6.31;nan
70468;BME280;57934;51.532;7.684;2023-02-13T06:42:10;102467.06;;;6.30;nan
70468;BME280;57934;51.532;7.684;2023-02-13T06:44:36;102463.22;;;6.23;nan
70468;BME280;57934;51.532;7.684;2023-02-13T06:47:02;102465.44;;;6.16;nan
70468;BME280;57934;51.532;7.684;2023-02-13T06:49:28;102462.41;;;6.10;nan
70468;BME280;57934;51.532;7.684;2023-02-13T06:51:54;102462.53;;;6.08;nan
70468;BME280;57934;51.532;7.684;2023-02-13T06:54:20;102461.81;;;6.06;nan
70468;BME280;57934;51.532;7.684;2023-02-13T06:56:46;102465.72;;;6.01;nan
70468;BME280;57934;51.532;7.684;2023-02-13T06:59:12;102463.72;;;5.91;nan
70468;BME280;57934;51.532;7.684;2023-02-13T07:01:38;102469.06;;;5.90;nan
70468;BME280;57934;51.532;7.684;2023-02-13T07:04:04;102471.91;;;5.87;nan
70468;BME280;57934;51.532;7.684;2023-02-13T07:06:30;102473.06;;;5.83;nan
70468;BME280;57934;51.532;7.684;2023-02-13T07:08:56;102478.81;;;5.75;nan
70468;BME280;57934;51.532;7.684;2023-02-13T07:11:23;102481.13;;;5.67;nan
70468;BME280;57934;51.532;7.684;2023-02-13T07:13:50;102477.88;;;5.63;nan
70468;BME280;57934;51.532;7.684;2023-02-13T07:16:16;102478.00;;;5.62;nan
70468;BME280;57934;51.532;7.684;2023-02-13T07:18:41;102478.00;;;5.62;nan
70468;BME280;57934;51.532;7.684;2023-02-13T07:21:07;102480.72;;;5.60;nan
70468;BME280;57934;51.532;7.684;2023-02-13T07:23:34;102481.66;;;5.59;nan
70468;BME280;57934;51.532;7.684;2023-02-13T07:26:00;102486.06;;;5.59;nan
70468;BME280;57934;51.532;7.684;2023-02-13T07:28:27;102485.75;;;5.63;nan
70468;BME280;57934;51.532;7.684;2023-02-13T07:30:53;102481.97;;;5.67;nan
70468;BME280;57934;51.532;7.684;2023-02-13T07:33:19;102484.50;;;5.69;nan
70468;BME280;57934;51.532;7.684;2023-02-13T07:35:47;102487.72;;;5.72;nan
70468;BME280;57934;51.532;7.684;2023-02-13T07:38:13;102488.66;;;5.71;nan
70468;BME280;57934;51.532;7.684;2023-02-13T07:40:39;102492.09;;;5.72;nan
70468;BME280;57934;51.532;7.684;2023-02-13T07:43:05;102496.09;;;5.78;nan
70468;BME280;57934;51.532;7.684;2023-02-13T07:45:31;102490.84;;;5.78;nan
70468;BME280;57934;51.532;7.684;2023-02-13T07:47:57;102492.44;;;5.80;nan
70468;BME280;57934;51.532;7.684;2023-02-13T07:50:24;102497.88;;;5.90;nan
70468;BME280;57934;51.532;7.684;2023-02-13T07:52:54;102491.22;;;6.10;nan
70468;BME280;57934;51.532;7.684;2023-02-13T07:55:20;102497.16;;;6.49;nan
70468;BME280;57934;51.532;7.684;2023-02-13T07:57:46;102502.78;;;7.14;nan
70468;BME280;57934;51.532;7.684;2023-02-13T08:00:12;102495.91;;;7.92;nan
70468;BME280;57934;51.532;7.684;2023-02-13T08:02:39;102489.44;;;8.62;nan
70468;BME280;57934;51.532;7.684;2023-02-13T08:05:05;102488.81;;;9.32;nan
70468;BME280;57934;51.532;7.684;2023-02-13T08:07:32;102497.69;;;10.02;nan
70468;BME280;57934;51.532;7.684;2023-02-13T08:09:58;102485.88;;;10.66;nan
70468;BME280;57934;51.532;7.684;2023-02-13T08:12:43;102488.56;;;11.23;nan
70468;BME280;57934;51.532;7.684;2023-02-13T08:15:11;102492.81;;;11.90;nan
70468;BME280;57934;51.532;7.684;2023-02-13T08:17:37;102490.19;;;12.36;nan
70468;BME280;57934;51.532;7.684;2023-02-13T08:20:04;102488.13;;;12.65;nan
70468;BME280;57934;51.532;7.684;2023-02-13T08:22:33;102491.09;;;13.06;nan
70468;BME280;57934;51.532;7.684;2023-02-13T08:24:59;102493.28;;;13.37;nan
70468;BME280;57934;51.532;7.684;2023-02-13T08:27:25;102495.38;;;13.25;nan
70468;BME280;57934;51.532;7.684;2023-02-13T08:29:52;102497.59;;;14.06;nan
70468;BME280;57934;51.532;7.684;2023-02-13T08:32:18;102499.50;;;13.80;nan
70468;BME280;57934;51.532;7.684;2023-02-13T08:34:44;102499.25;;;14.07;nan
70468;BME280;57934;51.532;7.684;2023-02-13T08:37:10;102499.09;;;13.67;nan
70468;BME280;57934;51.532;7.684;2023-02-13T08:39:36;102499.84;;;13.93;nan
70468;BME280;57934;51.532;7.684;2023-02-13T08:42:02;102501.97;;;14.48;nan
70468;BME280;57934;51.532;7.684;2023-02-13T08:44:28;102503.19;;;14.87;nan
70468;BME280;57934;51.532;7.684;2023-02-13T08:46:54;102494.41;;;14.70;nan
70468;BME280;57934;51.532;7.684;2023-02-13T08:49:20;102493.22;;;14.56;nan
70468;BME280;57934;51.532;7.684;2023-02-13T08:51:51;102483.03;;;14.27;nan
70468;BME280;57934;51.532;7.684;2023-02-13T08:54:17;102488.09;;;14.54;nan
70468;BME280;57934;51.532;7.684;2023-02-13T08:56:43;102491.00;;;14.27;nan
70468;BME280;57934;51.532;7.684;2023-02-13T08:59:08;102490.75;;;14.95;nan
70468;BME280;57934;51.532;7.684;2023-02-13T09:01:34;102488.59;;;15.71;nan
70468;BME280;57934;51.532;7.684;2023-02-13T09:04:00;102488.03;;;15.84;nan
70468;BME280;57934;51.532;7.684;2023-02-13T09:06:26;102495.78;;;16.02;nan
70468;BME280;57934;51.532;7.684;2023-02-13T09:08:53;102482.19;;;15.88;nan
70468;BME280;57934;51.532;7.684;2023-02-13T09:11:20;102487.78;;;16.02;nan
70468;BME280;57934;51.532;7.684;2023-02-13T09:13:49;102486.09;;;15.61;nan
70468;BME280;57934;51.532;7.684;2023-02-13T09:16:17;102489.63;;;16.24;nan
70468;BME280;57934;51.532;7.684;2023-02-13T09:18:45;102491.19;;;16.18;nan
70468;BME280;57934;51.532;7.684;2023-02-13T09:21:12;102493.44;;;15.98;nan
70468;BME280;57934;51.532;7.684;2023-02-13T09:23:39;102488.19;;;15.82;nan
70468;BME280;57934;51.532;7.684;2023-02-13T09:26:07;102492.38;;;15.21;nan
70468;BME280;57934;51.532;7.684;2023-02-13T09:28:34;102491.56;;;14.79;nan
70468;BME280;57934;51.532;7.684;2023-02-13T09:31:08;102484.78;;;15.57;nan
70468;BME280;57934;51.532;7.684;2023-02-13T09:33:35;102482.81;;;15.98;nan
70468;BME280;57934;51.532;7.684;2023-02-13T09:36:08;102489.03;;;15.27;nan
70468;BME280;57934;51.532;7.684;2023-02-13T09:38:35;102487.53;;;15.24;nan
70468;BME280;57934;51.532;7.684;2023-02-13T09:41:04;102486.03;;;15.22;nan
70468;BME280;57934;51.532;7.684;2023-02-13T09:43:36;102480.09;;;15.03;nan
70468;BME280;57934;51.532;7.684;2023-02-13T09:46:18;102478.94;;;15.06;nan
70468;BME280;57934;51.532;7.684;2023-02-13T09:48:49;102487.59;;;14.84;nan
70468;BME280;57934;51.532;7.684;2023-02-13T09:51:18;102493.03;;;15.31;nan
70468;BME280;57934;51.532;7.684;2023-02-13T09:54:00;102489.50;;;16.17;nan
70468;BME280;57934;51.532;7.684;2023-02-13T09:56:40;102488.97;;;15.43;nan
70468;BME280;57934;51.532;7.684;2023-02-13T09:59:51;102492.56;;;15.75;nan
70468;BME280;57934;51.532;7.684;2023-02-13T10:05:15;102499.38;;;14.81;nan
70468;BME280;57934;51.532;7.684;2023-02-13T10:07:53;102492.03;;;15.16;nan
70468;BME280;57934;51.532;7.684;2023-02-13T10:13:25;102496.13;;;13.35;nan
70468;BME280;57934;51.532;7.684;2023-02-13T10:16:11;102499.88;;;12.17;nan
70468;BME280;57934;51.532;7.684;2023-02-13T10:21:18;102497.66;;;11.01;nan
70468;BME280;57934;51.532;7.684;2023-02-13T10:23:53;102498.22;;;10.56;nan
70468;BME280;57934;51.532;7.684;2023-02-13T10:26:31;102497.78;;;10.32;nan
70468;BME280;57934;51.532;7.684;2023-02-13T10:32:26;102503.19;;;9.90;nan
70468;BME280;57934;51.532;7.684;2023-02-13T10:34:57;102500.94;;;9.75;nan
70468;BME280;57934;51.532;7.684;2023-02-13T10:37:27;102500.38;;;9.72;nan
70468;BME280;57934;51.532;7.684;2023-02-13T10:39:53;102493.78;;;9.87;nan
70468;BME280;57934;51.532;7.684;2023-02-13T10:45:25;102495.50;;;10.17;nan
70468;BME280;57934;51.532;7.684;2023-02-13T10:48:08;102491.00;;;10.48;nan
70468;BME280;57934;51.532;7.684;2023-02-13T10:50:55;102492.13;;;10.75;nan
70468;BME280;57934;51.532;7.684;2023-02-13T10:53:46;102485.16;;;11.03;nan
70468;BME280;57934;51.532;7.684;2023-02-13T10:56:29;102487.69;;;11.52;nan
70468;BME280;57934;51.532;7.684;2023-02-13T11:01:55;102468.72;;;11.19;nan
70468;BME280;57934;51.532;7.684;2023-02-13T11:04:22;102478.38;;;10.62;nan
70468;BME280;57934;51.532;7.684;2023-02-13T11:06:55;102473.22;;;10.70;nan
70468;BME280;57934;51.532;7.684;2023-02-13T11:09:23;102469.50;;;10.82;nan
70468;BME280;57934;51.532;7.684;2023-02-13T11:11:50;102469.75;;;10.60;nan
70468;BME280;57934;51.532;7.684;2023-02-13T11:19:48;102462.25;;;12.59;nan
70468;BME280;57934;51.532;7.684;2023-02-13T11:22:35;102455.47;;;13.53;nan
70468;BME280;57934;51.532;7.684;2023-02-13T11:25:06;102459.19;;;14.60;nan
70468;BME280;57934;51.532;7.684;2023-02-13T11:27:42;102459.22;;;14.76;nan
70468;BME280;57934;51.532;7.684;2023-02-13T11:33:06;102461.59;;;15.82;nan
70468;BME280;57934;51.532;7.684;2023-02-13T11:35:44;102454.34;;;15.68;nan
70468;BME280;57934;51.532;7.684;2023-02-13T11:40:49;102456.72;;;15.94;nan
70468;BME280;57934;51.532;7.684;2023-02-13T11:43:27;102448.50;;;16.73;nan
70468;BME280;57934;51.532;7.684;2023-02-13T11:46:10;102443.06;;;18.21;nan
70468;BME280;57934;51.532;7.684;2023-02-13T11:48:38;102440.06;;;19.84;nan
70468;BME280;57934;51.532;7.684;2023-02-13T11:51:04;102437.19;;;21.38;nan
70468;BME280;57934;51.532;7.684;2023-02-13T11:53:39;102438.50;;;22.37;nan
70468;BME280;57934;51.532;7.684;2023-02-13T11:56:11;102432.88;;;22.89;nan
70468;BME280;57934;51.532;7.684;2023-02-13T11:58:37;102437.66;;;20.16;nan
70468;BME280;57934;51.532;7.684;2023-02-13T12:04:16;102429.53;;;21.29;nan
70468;BME280;57934;51.532;7.684;2023-02-13T12:07:04;102427.44;;;21.89;nan
70468;BME280;57934;51.532;7.684;2023-02-13T12:09:38;102424.94;;;21.94;nan
70468;BME280;57934;51.532;7.684;2023-02-13T12:12:05;102415.59;;;22.78;nan
70468;BME280;57934;51.532;7.684;2023-02-13T12:14:37;102414.31;;;22.81;nan
70468;BME280;57934;51.532;7.684;2023-02-13T12:17:06;102408.13;;;23.54;nan
70468;BME280;57934;51.532;7.684;2023-02-13T12:19:41;102408.34;;;24.13;nan
70468;BME280;57934;51.532;7.684;2023-02-13T12:22:21;102404.78;;;24.00;nan
70468;BME280;57934;51.532;7.684;2023-02-13T12:39:10;102378.31;;;12.08;nan
70468;BME280;57934;51.532;7.684;2023-02-13T12:47:17;102370.50;;;10.59;nan
70468;BME280;57934;51.532;7.684;2023-02-13T12:53:01;102374.13;;;10.38;nan
70468;BME280;57934;51.532;7.684;2023-02-13T13:12:48;102350.44;;;10.29;nan
70468;BME280;57934;51.532;7.684;2023-02-13T13:15:34;102350.66;;;10.35;nan
70468;BME280;57934;51.532;7.684;2023-02-13T13:18:31;102357.59;;;10.17;nan
70468;BME280;57934;51.532;7.684;2023-02-13T13:23:56;102345.94;;;10.39;nan
70468;BME280;57934;51.532;7.684;2023-02-13T13:26:37;102345.13;;;10.38;nan
70468;BME280;57934;51.532;7.684;2023-02-13T13:29:21;102341.25;;;10.33;nan
70468;BME280;57934;51.532;7.684;2023-02-13T13:31:58;102335.94;;;10.42;nan
70468;BME280;57934;51.532;7.684;2023-02-13T13:34:26;102338.16;;;10.57;nan
70468;BME280;57934;51.532;7.684;2023-02-13T13:36:58;102333.03;;;10.45;nan
70468;BME280;57934;51.532;7.684;2023-02-13T13:39:59;102338.88;;;10.39;nan
70468;BME280;57934;51.532;7.684;2023-02-13T13:42:49;102338.16;;;10.57;nan
70468;BME280;57934;51.532;7.684;2023-02-13T13:50:29;102327.09;;;10.43;nan
70468;BME280;57934;51.532;7.684;2023-02-13T13:53:14;102322.63;;;10.24;nan
70468;BME280;57934;51.532;7.684;2023-02-13T13:58:31;102313.75;;;10.35;nan
70468;BME280;57934;51.532;7.684;2023-02-13T14:01:21;102316.09;;;10.48;nan
70468;BME280;57934;51.532;7.684;2023-02-13T14:04:36;102324.44;;;10.43;nan
70468;BME280;57934;51.532;7.684;2023-02-13T14:11:54;102319.16;;;10.24;nan
70468;BME280;57934;51.532;7.684;2023-02-13T14:16:57;102319.97;;;10.24;nan
70468;BME280;57934;51.532;7.684;2023-02-13T14:19:36;102323.47;;;10.25;nan
70468;BME280;57934;51.532;7.684;2023-02-13T14:24:51;102316.53;;;10.34;nan
70468;BME280;57934;51.532;7.684;2023-02-13T14:27:21;102316.25;;;10.37;nan
70468;BME280;57934;51.532;7.684;2023-02-13T14:29:48;102316.25;;;10.37;nan
70468;BME280;57934;51.532;7.684;2023-02-13T14:34:41;102310.53;;;10.51;nan
70468;BME280;57934;51.532;7.684;2023-02-13T14:42:38;102302.91;;;10.48;nan
70468;BME280;57934;51.532;7.684;2023-02-13T14:45:12;102304.72;;;10.38;nan
70468;BME280;57934;51.532;7.684;2023-02-13T14:47:46;102305.44;;;10.30;nan
70468;BME280;57934;51.532;7.684;2023-02-13T14:53:31;102300.16;;;10.20;nan
70468;BME280;57934;51.532;7.684;2023-02-13T14:56:05;102301.56;;;10.15;nan
70468;BME280;57934;51.532;7.684;2023-02-13T14:58:35;102296.41;;;10.13;nan
70468;BME280;57934;51.532;7.684;2023-02-13T15:03:48;102295.84;;;10.00;nan
70468;BME280;57934;51.532;7.684;2023-02-13T15:06:26;102291.13;;;10.03;nan
70468;BME280;57934;51.532;7.684;2023-02-13T15:08:55;102288.66;;;10.02;nan
70468;BME280;57934;51.532;7.684;2023-02-13T15:11:39;102291.00;;;10.05;nan
70468;BME280;57934;51.532;7.684;2023-02-13T15:14:21;102288.81;;;9.91;nan
70468;BME280;57934;51.532;7.684;2023-02-13T15:16:51;102285.19;;;9.82;nan
70468;BME280;57934;51.532;7.684;2023-02-13T15:19:20;102283.53;;;9.91;nan
70468;BME280;57934;51.532;7.684;2023-02-13T15:21:56;102277.72;;;9.87;nan
70468;BME280;57934;51.532;7.684;2023-02-13T15:24:23;102275.75;;;9.89;nan
70468;BME280;57934;51.532;7.684;2023-02-13T15:26:52;102282.97;;;9.77;nan
70468;BME280;57934;51.532;7.684;2023-02-13T15:29:19;102281.31;;;9.76;nan
70468;BME280;57934;51.532;7.684;2023-02-13T15:31:45;102276.88;;;9.77;nan
70468;BME280;57934;51.532;7.684;2023-02-13T15:34:29;102271.47;;;9.69;nan
70468;BME280;57934;51.532;7.684;2023-02-13T15:36:56;102283.22;;;9.65;nan
70468;BME280;57934;51.532;7.684;2023-02-13T15:39:26;102275.91;;;9.59;nan
70468;BME280;57934;51.532;7.684;2023-02-13T15:41:58;102282.53;;;9.53;nan
70468;BME280;57934;51.532;7.684;2023-02-13T15:44:31;102289.72;;;9.51;nan
70468;BME280;57934;51.532;7.684;2023-02-13T15:47:06;102278.78;;;9.46;nan
70468;BME280;57934;51.532;7.684;2023-02-13T15:49:37;102277.81;;;9.37;nan
70468;BME280;57934;51.532;7.684;2023-02-13T15:52:07;102270.59;;;9.39;nan
70468;BME280;57934;51.532;7.684;2023-02-13T15:54:35;102274.59;;;9.33;nan
70468;BME280;57934;51.532;7.684;2023-02-13T15:57:04;102271.69;;;9.27;nan
70468;BME280;57934;51.532;7.684;2023-02-13T15:59:35;102272.09;;;9.22;nan
70468;BME280;57934;51.532;7.684;2023-02-13T16:02:03;102266.66;;;9.14;nan